createdAt,value
2022-08-18T05:17:56.771Z,12.77
2022-08-18T05:20:25.569Z,12.05
2022-08-18T05:22:53.294Z,13.20
2022-08-18T05:28:14.503Z,13.48
2022-08-18T05:30:42.221Z,13.30
2022-08-18T05:33:12.421Z,12.82
2022-08-18T05:35:45.994Z,11.77
2022-08-18T05:38:19.322Z,12.23
2022-08-18T05:40:46.404Z,21.65
2022-08-18T05:43:15.208Z,18.48
2022-08-18T05:45:42.196Z,13.88
2022-08-18T05:48:09.236Z,12.27
2022-08-18T05:50:37.015Z,13.20
2022-08-18T05:53:12.538Z,12.05
2022-08-18T05:56:17.206Z,12.55
2022-08-18T05:58:46.191Z,11.90
2022-08-18T06:03:56.624Z,12.52
2022-08-18T06:06:29.698Z,12.80
2022-08-18T06:09:13.111Z,11.38
2022-08-18T06:11:40.125Z,12.77
2022-08-18T06:14:07.105Z,12.32
2022-08-18T06:16:48.686Z,12.82
2022-08-18T06:19:23.393Z,12.77
2022-08-18T06:22:05.530Z,11.73
2022-08-18T06:24:36.417Z,12.35
2022-08-18T06:27:16.244Z,12.70
2022-08-18T06:30:02.126Z,17.38
2022-08-18T06:33:06.225Z,13.70
2022-08-18T06:35:37.626Z,13.85
2022-08-18T06:38:40.122Z,12.95
2022-08-18T06:41:42.379Z,13.20
2022-08-18T06:44:07.520Z,12.10
2022-08-18T06:46:46.746Z,11.98
2022-08-18T06:49:40.146Z,13.57
2022-08-18T06:52:33.714Z,12.45
2022-08-18T06:55:02.756Z,12.93
2022-08-18T07:00:08.331Z,13.93
2022-08-18T07:02:44.101Z,14.65
2022-08-18T07:05:25.470Z,13.10
2022-08-18T07:08:12.313Z,12.57
2022-08-18T07:10:45.365Z,13.48
2022-08-18T07:13:20.039Z,13.48
2022-08-18T07:15:48.681Z,12.77
2022-08-18T07:18:23.144Z,22.33
2022-08-18T07:20:55.952Z,12.20
2022-08-18T07:23:35.652Z,11.88
2022-08-18T07:26:16.919Z,12.98
2022-08-18T07:28:48.568Z,15.15
2022-08-18T07:31:35.244Z,15.95
2022-08-18T07:34:15.559Z,13.23
2022-08-18T07:36:53.507Z,13.95
2022-08-18T07:39:30.546Z,14.53
2022-08-18T07:43:01.292Z,13.90
2022-08-18T07:45:37.851Z,13.48
2022-08-18T07:48:37.556Z,14.77
2022-08-18T07:51:19.307Z,14.65
2022-08-18T07:54:00.969Z,13.30
2022-08-18T07:56:51.348Z,15.80
2022-08-18T07:59:27.181Z,14.82
2022-08-18T08:02:26.660Z,18.10
2022-08-18T08:05:04.171Z,14.90
2022-08-18T08:08:00.418Z,13.75
2022-08-18T08:10:31.453Z,14.32
2022-08-18T08:13:51.767Z,14.18
2022-08-18T08:16:47.948Z,13.70
2022-08-18T08:19:59.340Z,13.65
2022-08-18T08:25:02.100Z,13.43
2022-08-18T08:30:16.796Z,12.95
2022-08-18T08:33:02.766Z,12.52
2022-08-18T08:35:50.257Z,12.38
2022-08-18T08:38:44.476Z,12.85
2022-08-18T08:41:16.300Z,12.93
2022-08-18T08:43:47.805Z,12.02
2022-08-18T08:46:23.736Z,11.82
2022-08-18T08:48:58.132Z,11.20
2022-08-18T08:51:49.790Z,10.70
2022-08-18T08:54:27.065Z,9.27
2022-08-18T08:56:55.501Z,9.95
2022-08-18T08:59:22.979Z,9.57
2022-08-18T09:02:09.589Z,9.68
2022-08-18T09:05:14.709Z,9.60
2022-08-18T09:07:47.536Z,9.23
2022-08-18T09:10:49.650Z,10.05
2022-08-18T09:13:28.453Z,22.35
2022-08-18T09:16:13.668Z,9.73
2022-08-18T09:18:59.955Z,9.88
2022-08-18T09:21:35.838Z,8.88
2022-08-18T09:24:29.324Z,9.63
2022-08-18T09:27:13.976Z,9.80
2022-08-18T09:29:58.457Z,9.18
2022-08-18T09:32:26.297Z,9.07
2022-08-18T09:35:25.367Z,9.57
2022-08-18T09:38:20.407Z,8.65
2022-08-18T09:41:16.219Z,10.73
2022-08-18T09:44:18.231Z,9.77
2022-08-18T09:46:58.690Z,9.35
2022-08-18T09:49:26.660Z,9.50
2022-08-18T09:54:59.345Z,9.07
2022-08-18T09:57:42.274Z,9.98
2022-08-18T10:00:14.772Z,9.35
2022-08-18T10:05:29.928Z,9.07
2022-08-18T10:08:21.211Z,9.57
2022-08-18T10:11:16.806Z,10.38
2022-08-18T10:14:03.496Z,8.75
2022-08-18T10:17:22.136Z,9.60
2022-08-18T10:20:06.286Z,9.43
2022-08-18T10:22:46.734Z,9.10
2022-08-18T10:25:22.110Z,9.80
2022-08-18T10:27:55.774Z,9.25
2022-08-18T10:30:36.421Z,10.00
2022-08-18T10:34:00.681Z,9.60
2022-08-18T10:36:53.293Z,9.30
2022-08-18T10:39:25.307Z,9.00
2022-08-18T10:42:30.931Z,7.38
2022-08-18T10:45:26.005Z,9.15
2022-08-18T10:48:19.284Z,9.20
2022-08-18T10:50:58.801Z,9.98
2022-08-18T10:53:45.617Z,10.38
2022-08-18T10:56:28.553Z,9.38
2022-08-18T10:59:19.933Z,12.82
2022-08-18T11:02:11.116Z,9.40
2022-08-18T11:07:36.013Z,9.25
2022-08-18T11:10:32.219Z,9.40
2022-08-18T11:13:08.821Z,8.40
2022-08-18T11:16:04.033Z,9.02
2022-08-18T11:21:32.313Z,8.35
2022-08-18T11:24:25.121Z,9.07
2022-08-18T11:26:56.189Z,9.48
2022-08-18T11:29:33.840Z,10.02
2022-08-18T11:32:19.551Z,9.25
2022-08-18T11:34:52.965Z,9.82
2022-08-18T11:37:49.054Z,9.35
2022-08-18T11:40:51.744Z,9.27
2022-08-18T11:43:21.544Z,9.95
2022-08-18T11:45:55.425Z,8.05
2022-08-18T11:51:23.569Z,16.90
2022-08-18T11:54:12.781Z,8.90
2022-08-18T11:56:39.885Z,7.93
2022-08-18T11:59:34.862Z,10.15
2022-08-18T12:02:18.719Z,8.55
2022-08-18T12:04:50.546Z,9.43
2022-08-18T12:07:20.366Z,8.55
2022-08-18T12:10:18.294Z,8.15
2022-08-18T12:12:52.002Z,8.65
2022-08-18T12:15:24.064Z,8.65
2022-08-18T12:17:53.896Z,12.25
2022-08-18T12:20:21.630Z,8.13
2022-08-18T12:22:50.200Z,8.32
2022-08-18T12:25:24.857Z,8.00
2022-08-18T12:27:55.743Z,8.25
2022-08-18T12:30:23.491Z,15.90
2022-08-18T12:32:55.756Z,7.88
2022-08-18T12:35:23.671Z,8.10
2022-08-18T12:40:40.260Z,7.93
2022-08-18T12:43:07.568Z,8.30
2022-08-18T12:45:34.719Z,7.63
2022-08-18T12:48:05.210Z,7.97
2022-08-18T12:50:49.638Z,7.95
2022-08-18T12:53:17.683Z,8.35
2022-08-18T12:55:56.096Z,8.52
2022-08-18T12:58:23.110Z,7.25
2022-08-18T13:00:51.436Z,8.50
2022-08-18T13:03:19.432Z,6.93
2022-08-18T13:05:47.694Z,7.55
2022-08-18T13:08:27.659Z,7.25
2022-08-18T13:11:14.939Z,7.75
2022-08-18T13:16:38.778Z,7.68
2022-08-18T13:19:10.643Z,8.32
2022-08-18T13:21:38.990Z,7.53
2022-08-18T13:24:09.599Z,7.68
2022-08-18T13:26:39.839Z,8.13
2022-08-18T13:29:10.204Z,6.85
2022-08-18T13:31:38.178Z,7.35
2022-08-18T13:34:11.844Z,10.07
2022-08-18T13:36:48.044Z,7.30
2022-08-18T13:39:20.460Z,7.20
2022-08-18T13:41:48.983Z,7.28
2022-08-18T13:44:19.878Z,7.68
2022-08-18T13:46:47.529Z,7.65
2022-08-18T13:52:00.278Z,7.20
2022-08-18T13:54:35.325Z,7.57
2022-08-18T13:57:03.346Z,7.68
2022-08-18T13:59:33.355Z,6.15
2022-08-18T14:02:02.748Z,7.95
2022-08-18T14:16:54.521Z,8.57
2022-08-18T14:19:42.340Z,9.10
2022-08-18T14:22:28.826Z,10.77
2022-08-18T14:25:14.245Z,8.88
2022-08-18T14:27:41.371Z,10.43
2022-08-18T14:30:23.379Z,10.50
2022-08-18T14:32:50.557Z,8.93
2022-08-18T14:35:33.654Z,8.82
2022-08-18T14:38:10.067Z,8.65
2022-08-18T14:40:38.880Z,8.57
2022-08-18T14:43:11.085Z,9.05
2022-08-18T14:45:38.266Z,8.48
2022-08-18T14:48:07.405Z,12.80
2022-08-18T14:50:35.683Z,7.57
2022-08-18T14:53:05.151Z,7.82
2022-08-18T14:55:32.477Z,8.07
2022-08-18T14:58:01.597Z,8.27
2022-08-18T15:00:28.848Z,10.43
2022-08-18T15:02:59.387Z,9.07
2022-08-18T15:05:33.783Z,8.25
2022-08-18T15:08:05.619Z,8.63
2022-08-18T15:10:33.080Z,8.55
2022-08-18T15:13:03.125Z,8.43
2022-08-18T15:15:42.365Z,9.40
2022-08-18T15:21:35.732Z,8.32
2022-08-18T15:24:24.330Z,8.43
2022-08-18T15:26:57.542Z,8.50
2022-08-18T15:29:29.225Z,10.18
2022-08-18T15:32:05.868Z,8.52
2022-08-18T15:34:46.283Z,8.15
2022-08-18T15:37:19.872Z,6.83
2022-08-18T15:39:51.849Z,7.47
2022-08-18T15:42:24.234Z,6.68
2022-08-18T15:47:35.807Z,5.97
2022-08-18T15:50:06.886Z,6.72
2022-08-18T15:55:23.276Z,8.85
2022-08-18T16:00:26.001Z,6.70
2022-08-18T16:02:57.246Z,6.07
2022-08-18T16:05:30.113Z,6.47
2022-08-18T16:07:57.984Z,5.88
2022-08-18T16:10:28.023Z,6.25
2022-08-18T16:12:55.662Z,14.27
2022-08-18T16:15:24.506Z,8.87
2022-08-18T16:17:54.472Z,10.45
2022-08-18T16:22:51.261Z,10.77
2022-08-18T16:25:18.575Z,10.30
2022-08-18T16:27:45.685Z,13.35
2022-08-18T16:30:16.361Z,10.82
2022-08-18T16:32:43.671Z,10.95
2022-08-18T16:35:11.375Z,11.57
2022-08-18T16:37:38.433Z,14.77
2022-08-18T16:40:05.985Z,14.18
2022-08-18T16:42:33.307Z,12.68
2022-08-18T16:45:01.451Z,12.52
2022-08-18T16:47:28.539Z,12.15
2022-08-18T16:49:58.523Z,13.10
2022-08-18T16:52:27.326Z,14.02
2022-08-18T16:54:57.582Z,13.73
2022-08-18T16:57:53.534Z,13.20
2022-08-18T17:00:41.324Z,13.30
2022-08-18T17:03:26.785Z,12.18
2022-08-18T17:06:07.523Z,13.73
2022-08-18T17:08:35.332Z,13.73
2022-08-18T17:11:06.000Z,13.97
2022-08-18T17:13:33.850Z,15.80
2022-08-18T17:16:00.968Z,14.37
2022-08-18T17:18:30.846Z,13.65
2022-08-18T17:21:05.505Z,14.45
2022-08-18T17:30:57.124Z,15.77
2022-08-18T17:33:28.903Z,13.60
2022-08-18T17:35:56.204Z,14.63
2022-08-18T17:38:32.787Z,13.93
2022-08-18T17:41:02.335Z,13.20
2022-08-18T17:43:33.597Z,13.65
2022-08-18T17:46:14.866Z,14.20
2022-08-18T17:48:52.400Z,12.52
2022-08-18T18:11:08.990Z,12.93
2022-08-18T18:13:36.588Z,13.30
2022-08-18T18:16:28.182Z,12.90
2022-08-18T18:58:49.822Z,14.93
2022-08-18T19:01:48.884Z,17.13
2022-08-18T19:04:39.157Z,18.17
2022-08-18T19:07:09.308Z,17.08
2022-08-18T19:10:12.305Z,18.88
2022-08-18T19:13:32.326Z,17.90
2022-08-18T19:16:23.333Z,17.90
2022-08-18T19:18:59.786Z,18.17
2022-08-18T19:22:03.727Z,17.55
2022-08-18T19:24:28.006Z,17.50
2022-08-18T19:26:57.242Z,16.80
2022-08-18T19:29:26.978Z,15.85
2022-08-18T19:32:05.043Z,16.55
2022-08-18T19:34:36.447Z,17.40
2022-08-18T19:37:27.377Z,16.67
2022-08-18T19:40:13.091Z,16.42
2022-08-18T19:42:44.492Z,14.85
2022-08-18T19:45:23.445Z,13.85
2022-08-18T19:48:12.290Z,14.85
2022-08-18T19:50:50.541Z,15.20
2022-08-18T19:53:40.356Z,13.90
2022-08-18T19:56:41.395Z,15.52
2022-08-18T19:59:47.359Z,15.90
2022-08-18T20:02:53.337Z,16.63
2022-08-18T20:05:45.386Z,16.38
2022-08-18T20:08:27.562Z,14.95
2022-08-18T20:11:06.130Z,15.40
2022-08-18T20:13:36.210Z,13.68
2022-08-18T20:16:03.210Z,14.80
2022-08-18T20:18:34.564Z,14.63
2022-08-18T20:21:22.427Z,15.85
2022-08-18T20:24:30.764Z,15.10
2022-08-18T20:27:00.899Z,15.85
2022-08-18T20:29:36.384Z,15.35
2022-08-18T20:32:07.197Z,16.42
2022-08-18T20:34:35.234Z,16.05
2022-08-18T20:37:08.310Z,15.30
2022-08-18T20:39:48.265Z,16.02
2022-08-18T20:42:21.476Z,16.00
2022-08-18T20:44:48.439Z,17.10
2022-08-18T20:47:53.278Z,15.55
2022-08-18T20:50:41.927Z,16.50
2022-08-18T20:53:21.671Z,15.50
2022-08-18T20:55:55.509Z,16.38
2022-08-18T20:58:25.994Z,15.45
2022-08-18T21:00:55.766Z,16.00
2022-08-18T21:03:24.046Z,15.98
2022-08-18T21:05:58.308Z,16.73
2022-08-18T21:08:29.665Z,16.63
2022-08-18T21:11:10.322Z,17.17
2022-08-18T21:17:17.940Z,16.05
2022-08-18T21:19:45.026Z,15.30
2022-08-18T21:22:13.100Z,15.73
2022-08-18T21:24:43.937Z,16.30
2022-08-18T21:27:31.734Z,15.98
2022-08-18T21:30:07.340Z,17.48
2022-08-18T21:32:36.695Z,17.20
2022-08-18T21:35:19.329Z,16.13
2022-08-18T21:38:06.731Z,15.40
2022-08-18T21:40:47.437Z,16.95
2022-08-18T21:43:32.656Z,16.17
2022-08-18T21:46:00.538Z,17.42
2022-08-18T21:48:27.813Z,17.48
2022-08-18T21:50:58.459Z,17.65
2022-08-18T21:53:38.502Z,16.42
2022-08-18T21:56:05.724Z,16.90
2022-08-18T21:58:45.561Z,17.92
2022-08-18T22:01:25.920Z,17.77
2022-08-18T22:04:12.780Z,17.17
2022-08-18T22:06:40.746Z,18.25
2022-08-18T22:09:29.040Z,17.42
2022-08-18T22:12:40.305Z,18.23
2022-08-18T22:15:19.681Z,17.35
2022-08-18T22:17:57.821Z,17.58
2022-08-18T22:20:36.936Z,17.73
2022-08-18T22:23:31.395Z,16.05
2022-08-18T22:26:16.575Z,16.52
2022-08-18T22:29:00.447Z,16.38
2022-08-18T22:31:30.740Z,16.88
2022-08-18T22:34:00.928Z,17.25
2022-08-18T22:36:28.743Z,17.25
2022-08-18T22:38:56.413Z,16.02
2022-08-18T22:41:23.614Z,18.15
2022-08-18T22:43:54.911Z,17.30
2022-08-18T22:46:24.949Z,17.90
2022-08-18T22:48:52.883Z,18.15
2022-08-18T22:51:24.940Z,19.63
2022-08-18T22:53:52.071Z,18.83
2022-08-18T22:56:34.080Z,17.75
2022-08-18T22:59:13.737Z,18.15
2022-08-18T23:01:45.365Z,18.35
2022-08-18T23:04:12.437Z,17.37
2022-08-18T23:06:39.430Z,18.95
2022-08-18T23:09:07.497Z,18.55
2022-08-18T23:11:34.633Z,19.33
2022-08-18T23:14:02.378Z,19.67
2022-08-18T23:16:30.422Z,19.00
2022-08-18T23:19:02.127Z,18.13
2022-08-18T23:21:34.171Z,19.02
2022-08-18T23:24:05.269Z,17.88
2022-08-18T23:26:32.274Z,17.33
2022-08-18T23:28:59.305Z,18.25
2022-08-18T23:31:26.389Z,18.88
2022-08-18T23:33:53.384Z,20.52
2022-08-18T23:36:20.394Z,17.35
2022-08-18T23:38:47.427Z,19.55
2022-08-18T23:41:14.536Z,18.88
2022-08-18T23:43:42.321Z,17.15
2022-08-18T23:46:29.233Z,19.52
2022-08-18T23:48:57.527Z,17.88
2022-08-18T23:51:29.516Z,18.00
2022-08-18T23:53:59.230Z,18.63
2022-08-18T23:56:30.813Z,18.80
2022-08-18T23:58:57.907Z,17.70
